createdAt,value
2017-08-03T00:00:31.993Z,30.83
2017-08-03T00:02:59.536Z,24.53
2017-08-03T00:05:27.038Z,29.10
2017-08-03T00:07:54.629Z,33.20
2017-08-03T00:10:22.133Z,36.37
2017-08-03T00:12:50.409Z,37.97
2017-08-03T00:15:17.905Z,28.27
2017-08-03T00:17:45.409Z,35.73
2017-08-03T00:20:12.898Z,36.67
2017-08-03T00:22:40.420Z,30.00
2017-08-03T00:25:07.964Z,34.63
2017-08-03T00:27:35.484Z,37.70
2017-08-03T00:30:03.037Z,48.00
2017-08-03T00:32:30.529Z,36.80
2017-08-03T00:34:58.042Z,37.53
2017-08-03T00:37:25.533Z,34.27
2017-08-03T00:39:53.826Z,39.70
2017-08-03T00:42:21.386Z,38.47
2017-08-03T00:44:48.904Z,35.73
2017-08-03T00:47:16.452Z,34.83
2017-08-03T00:49:43.996Z,33.97
2017-08-03T00:52:11.542Z,39.10
2017-08-03T00:54:39.072Z,38.00
2017-08-03T00:57:06.629Z,42.50
2017-08-03T00:59:34.173Z,39.60
2017-08-03T01:02:01.681Z,37.17
2017-08-03T01:04:29.169Z,32.30
2017-08-03T01:06:56.677Z,36.73
2017-08-03T01:09:24.964Z,35.17
2017-08-03T01:11:52.504Z,38.53
2017-08-03T01:14:20.055Z,34.13
2017-08-03T01:16:47.561Z,39.17
2017-08-03T01:19:15.825Z,37.83
2017-08-03T01:21:44.113Z,37.83
2017-08-03T01:24:11.605Z,36.93
2017-08-03T01:26:39.118Z,32.50
2017-08-03T01:29:06.641Z,40.93
2017-08-03T01:31:34.148Z,41.80
2017-08-03T01:34:01.731Z,39.63
2017-08-03T01:36:29.237Z,39.33
2017-08-03T01:38:56.820Z,41.37
2017-08-03T01:41:24.308Z,35.13
2017-08-03T01:43:51.829Z,37.00
2017-08-03T01:46:19.317Z,38.60
2017-08-03T01:48:47.628Z,46.17
2017-08-03T01:51:15.152Z,41.90
2017-08-03T01:53:42.669Z,31.03
2017-08-03T01:56:11.008Z,42.17
2017-08-03T01:58:38.606Z,35.50
2017-08-03T02:01:06.148Z,38.60
2017-08-03T02:03:33.657Z,33.20
2017-08-03T02:06:01.278Z,31.97
2017-08-03T02:08:28.880Z,38.33
2017-08-03T02:10:56.573Z,43.33
2017-08-03T02:13:24.074Z,34.53
2017-08-03T02:15:51.745Z,34.53
2017-08-03T02:18:19.269Z,44.93
2017-08-03T02:20:46.777Z,57.10
2017-08-03T02:23:14.355Z,46.10
2017-08-03T02:25:41.902Z,39.43
2017-08-03T02:28:09.442Z,40.40
2017-08-03T02:30:36.993Z,42.40
2017-08-03T02:33:04.553Z,39.33
2017-08-03T02:35:32.073Z,37.03
2017-08-03T02:37:59.612Z,36.27
2017-08-03T02:40:27.160Z,42.97
2017-08-03T02:42:54.660Z,43.50
2017-08-03T02:45:22.253Z,47.80
2017-08-03T02:47:49.746Z,39.10
2017-08-03T02:50:17.236Z,38.17
2017-08-03T02:52:44.736Z,40.00
2017-08-03T02:55:12.326Z,39.80
2017-08-03T02:57:39.841Z,40.57
2017-08-03T03:00:08.134Z,39.70
2017-08-03T03:02:35.681Z,38.87
2017-08-03T03:05:03.222Z,37.97
2017-08-03T03:07:30.758Z,39.83
2017-08-03T03:09:58.301Z,41.73
2017-08-03T03:12:25.854Z,34.70
2017-08-03T03:14:53.406Z,35.03
2017-08-03T03:17:20.934Z,42.70
2017-08-03T03:19:48.483Z,36.20
2017-08-03T03:22:16.008Z,31.60
2017-08-03T03:24:43.568Z,32.80
2017-08-03T03:27:11.109Z,31.40
2017-08-03T03:29:38.618Z,37.00
2017-08-03T03:32:06.197Z,34.93
2017-08-03T03:34:33.741Z,33.13
2017-08-03T03:37:01.284Z,38.47
2017-08-03T03:39:28.792Z,30.20
2017-08-03T03:41:56.294Z,28.37
2017-08-03T03:44:23.805Z,19.97
2017-08-03T03:46:51.370Z,29.03
2017-08-03T03:49:18.882Z,24.90
2017-08-03T03:51:47.269Z,29.13
2017-08-03T03:54:14.822Z,39.23
2017-08-03T03:56:42.353Z,28.93
2017-08-03T03:59:09.899Z,30.03
2017-08-03T04:01:37.392Z,29.73
2017-08-03T04:04:04.984Z,25.40
2017-08-03T04:06:32.476Z,29.17
2017-08-03T04:09:00.073Z,33.90
2017-08-03T04:11:27.621Z,29.47
2017-08-03T04:13:55.156Z,32.00
2017-08-03T04:16:22.717Z,30.70
2017-08-03T04:18:50.260Z,31.33
2017-08-03T04:21:17.873Z,28.63
2017-08-03T04:23:46.157Z,30.27
2017-08-03T04:26:13.700Z,34.27
2017-08-03T04:28:41.245Z,28.33
2017-08-03T04:31:08.754Z,36.90
2017-08-03T04:33:36.241Z,33.80
2017-08-03T04:36:03.745Z,31.10
2017-08-03T04:38:32.117Z,31.80
2017-08-03T04:41:00.492Z,29.70
2017-08-03T04:43:28.042Z,33.00
2017-08-03T04:45:55.584Z,31.97
2017-08-03T04:48:23.157Z,37.10
2017-08-03T04:50:50.777Z,39.80
2017-08-03T04:53:18.299Z,32.63
2017-08-03T04:55:46.594Z,36.07
2017-08-03T04:58:14.129Z,34.07
2017-08-03T05:00:41.616Z,31.50
2017-08-03T05:03:09.122Z,29.37
2017-08-03T05:05:37.229Z,36.07
2017-08-03T05:08:04.805Z,38.07
2017-08-03T05:10:32.292Z,35.97
2017-08-03T05:12:59.793Z,38.40
2017-08-03T05:15:27.345Z,37.80
2017-08-03T05:17:54.901Z,32.57
2017-08-03T05:20:22.457Z,34.23
2017-08-03T05:22:50.082Z,37.83
2017-08-03T05:25:17.589Z,34.30
2017-08-03T05:27:45.091Z,39.30
2017-08-03T05:30:12.609Z,38.20
2017-08-03T05:32:40.100Z,47.40
2017-08-03T05:35:07.697Z,42.73
2017-08-03T05:37:35.241Z,46.03
2017-08-03T05:40:02.783Z,35.27
2017-08-03T05:42:30.323Z,35.83
2017-08-03T05:44:57.824Z,38.10
2017-08-03T05:47:25.313Z,33.40
2017-08-03T05:49:52.836Z,44.00
2017-08-03T05:52:21.096Z,42.80
2017-08-03T05:54:49.377Z,39.57
2017-08-03T05:57:16.882Z,34.63
2017-08-03T05:59:44.465Z,32.33
2017-08-03T06:02:11.944Z,36.30
2017-08-03T06:04:39.556Z,31.00
2017-08-03T06:07:07.045Z,30.90
2017-08-03T06:09:34.645Z,34.07
2017-08-03T06:12:02.128Z,26.50
2017-08-03T06:14:29.648Z,37.77
2017-08-03T06:16:57.199Z,33.47
2017-08-03T06:19:24.692Z,31.20
2017-08-03T06:21:52.978Z,27.30
2017-08-03T06:24:20.500Z,22.60
2017-08-03T06:26:48.784Z,27.80
2017-08-03T06:29:16.328Z,30.03
2017-08-03T06:31:43.884Z,23.20
2017-08-03T06:34:11.417Z,24.50
2017-08-03T06:36:38.964Z,20.40
2017-08-03T06:39:06.505Z,19.23
2017-08-03T06:41:34.047Z,16.07
2017-08-03T06:44:01.543Z,19.97
2017-08-03T06:46:29.132Z,20.87
2017-08-03T06:48:56.684Z,21.80
2017-08-03T06:51:24.340Z,19.73
2017-08-03T06:53:51.971Z,21.60
2017-08-03T06:56:19.527Z,19.23
2017-08-03T06:58:47.062Z,22.07
2017-08-03T07:01:14.605Z,21.80
2017-08-03T07:03:42.174Z,21.80
2017-08-03T07:06:09.673Z,17.07
2017-08-03T07:08:37.945Z,15.70
2017-08-03T07:11:05.437Z,15.40
2017-08-03T07:13:33.065Z,17.97
2017-08-03T07:16:00.556Z,14.03
2017-08-03T07:18:28.844Z,18.90
2017-08-03T07:20:56.342Z,18.07
2017-08-03T07:23:23.866Z,15.50
2017-08-03T07:25:51.369Z,21.87
2017-08-03T07:28:18.922Z,14.77
2017-08-03T07:30:46.492Z,17.03
2017-08-03T07:33:14.009Z,17.57
2017-08-03T07:35:41.548Z,16.97
2017-08-03T07:38:09.071Z,15.63
2017-08-03T07:40:37.361Z,17.93
2017-08-03T07:43:04.892Z,11.97
2017-08-03T07:45:32.548Z,13.83
2017-08-03T07:48:00.122Z,23.70
2017-08-03T07:50:27.624Z,15.07
2017-08-03T07:52:55.192Z,12.07
2017-08-03T07:55:22.792Z,16.40
2017-08-03T07:57:51.089Z,13.27
2017-08-03T08:00:18.609Z,17.87
2017-08-03T08:02:46.897Z,13.47
2017-08-03T08:05:14.461Z,10.40
2017-08-03T08:07:41.976Z,12.40
2017-08-03T08:10:09.472Z,10.83
2017-08-03T08:12:36.953Z,17.23
2017-08-03T08:15:04.436Z,15.43
2017-08-03T08:17:31.950Z,12.50
2017-08-03T08:19:59.435Z,14.93
2017-08-03T08:22:26.936Z,14.43
2017-08-03T08:24:54.455Z,8.53
2017-08-03T08:27:23.062Z,10.83
2017-08-03T08:29:51.549Z,7.03
2017-08-03T08:32:19.057Z,10.27
2017-08-03T08:34:46.555Z,12.70
2017-08-03T08:37:14.061Z,7.43
2017-08-03T08:39:41.585Z,9.17
2017-08-03T08:42:09.086Z,6.80
2017-08-03T08:44:36.673Z,5.10
2017-08-03T08:47:04.218Z,13.83
2017-08-03T08:49:31.707Z,6.77
2017-08-03T08:51:59.301Z,7.93
2017-08-03T08:54:26.881Z,4.73
2017-08-03T08:56:55.091Z,4.70
2017-08-03T08:59:22.669Z,6.90
2017-08-03T09:01:51.432Z,5.20
2017-08-03T09:04:18.928Z,8.87
2017-08-03T09:06:46.408Z,8.47
2017-08-03T09:09:13.907Z,4.80
2017-08-03T09:11:41.409Z,8.23
2017-08-03T09:14:08.953Z,7.50
2017-08-03T09:16:36.445Z,6.60
2017-08-03T09:19:03.944Z,8.30
2017-08-03T09:21:31.425Z,6.83
2017-08-03T09:23:58.925Z,6.87
2017-08-03T09:26:26.425Z,8.47
2017-08-03T09:28:54.824Z,7.10
2017-08-03T09:31:22.378Z,4.80
2017-08-03T09:33:49.945Z,5.67
2017-08-03T09:36:17.479Z,10.13
2017-08-03T09:38:44.979Z,5.50
2017-08-03T09:41:13.241Z,7.77
2017-08-03T09:43:41.497Z,7.07
2017-08-03T09:46:09.066Z,5.30
2017-08-03T09:48:36.810Z,7.30
2017-08-03T09:51:04.461Z,7.00
2017-08-03T09:53:31.996Z,5.80
2017-08-03T09:55:59.540Z,4.50
2017-08-03T09:58:27.357Z,6.10
2017-08-03T10:00:54.873Z,8.90
2017-08-03T10:03:22.364Z,5.10
2017-08-03T10:05:50.221Z,4.00
2017-08-03T10:08:17.780Z,6.47
2017-08-03T10:10:45.260Z,4.20
2017-08-03T10:13:12.761Z,3.80
2017-08-03T10:15:40.317Z,4.40
2017-08-03T10:18:07.871Z,4.50
2017-08-03T10:20:35.387Z,4.17
2017-08-03T10:23:02.941Z,6.50
2017-08-03T10:25:30.422Z,9.23
2017-08-03T10:27:57.928Z,4.60
2017-08-03T10:30:25.431Z,4.03
2017-08-03T10:32:53.768Z,6.20
2017-08-03T10:35:21.418Z,3.77
2017-08-03T10:37:49.744Z,4.47
2017-08-03T10:40:17.241Z,5.60
2017-08-03T10:42:44.824Z,5.53
2017-08-03T10:45:12.352Z,4.87
2017-08-03T10:47:40.760Z,3.50
2017-08-03T10:50:08.285Z,8.23
2017-08-03T10:52:35.768Z,7.27
2017-08-03T10:55:03.362Z,5.13
2017-08-03T10:57:30.913Z,4.93
2017-08-03T10:59:58.409Z,5.50
2017-08-03T11:02:26.000Z,4.10
2017-08-03T11:04:53.713Z,5.90
2017-08-03T11:07:22.572Z,6.10
2017-08-03T11:09:50.693Z,4.63
2017-08-03T11:12:18.206Z,6.70
2017-08-03T11:14:46.698Z,5.83
2017-08-03T11:17:14.291Z,5.90
2017-08-03T11:19:41.975Z,6.60
2017-08-03T11:22:09.528Z,6.03
2017-08-03T11:24:37.072Z,6.77
2017-08-03T11:27:04.639Z,7.67
2017-08-03T11:29:32.125Z,6.53
2017-08-03T11:32:00.421Z,5.03
2017-08-03T11:34:28.154Z,3.80
2017-08-03T11:36:56.249Z,4.17
2017-08-03T11:39:27.010Z,4.90
2017-08-03T11:41:57.713Z,3.37
2017-08-03T11:44:27.657Z,7.93
2017-08-03T11:46:55.865Z,6.60
2017-08-03T11:49:24.728Z,5.60
2017-08-03T11:51:54.516Z,2.63
2017-08-03T11:54:29.890Z,3.50
2017-08-03T11:56:58.833Z,3.40
2017-08-03T11:59:26.881Z,3.80
2017-08-03T12:01:56.790Z,4.37
2017-08-03T12:04:27.810Z,4.30
2017-08-03T12:07:01.081Z,3.20
2017-08-03T12:09:30.009Z,2.90
2017-08-03T12:11:59.259Z,2.63
2017-08-03T12:14:28.927Z,2.27
2017-08-03T12:17:00.247Z,2.67
2017-08-03T12:19:31.539Z,2.83
2017-08-03T12:22:10.396Z,2.57
2017-08-03T12:24:37.892Z,4.33
2017-08-03T12:27:05.445Z,2.37
2017-08-03T12:29:33.033Z,4.00
2017-08-03T12:32:02.628Z,7.77
2017-08-03T12:34:31.815Z,2.13
2017-08-03T12:36:59.890Z,1.93
2017-08-03T12:39:28.336Z,1.80
2017-08-03T12:41:56.402Z,2.20
2017-08-03T12:44:26.317Z,2.87
2017-08-03T12:46:58.788Z,2.27
2017-08-03T12:49:30.419Z,3.30
2017-08-03T12:52:08.985Z,2.23
2017-08-03T12:54:36.496Z,5.37
2017-08-03T12:57:05.477Z,6.20
2017-08-03T12:59:34.547Z,8.73
2017-08-03T13:02:03.250Z,3.80
2017-08-03T13:04:32.410Z,6.50
2017-08-03T13:07:00.962Z,4.60
2017-08-03T13:09:28.647Z,11.10
2017-08-03T13:12:02.266Z,4.70
2017-08-03T13:14:30.921Z,10.30
2017-08-03T13:16:59.523Z,3.10
2017-08-03T13:19:28.456Z,3.60
2017-08-03T13:21:57.112Z,1.90
2017-08-03T13:24:35.930Z,3.00
2017-08-03T13:27:03.545Z,7.67
2017-08-03T13:29:31.167Z,6.00
2017-08-03T13:31:58.845Z,11.43
2017-08-03T13:34:26.392Z,3.07
2017-08-03T13:36:54.059Z,12.83
2017-08-03T13:39:22.220Z,4.50
2017-08-03T13:41:49.849Z,9.60
2017-08-03T13:44:17.484Z,4.70
2017-08-03T13:46:44.960Z,7.73
2017-08-03T13:49:12.485Z,5.80
2017-08-03T13:51:40.001Z,4.40
2017-08-03T13:54:08.269Z,5.60
2017-08-03T13:56:35.812Z,2.97
2017-08-03T13:59:03.360Z,4.77
2017-08-03T14:01:30.932Z,3.00
2017-08-03T14:03:58.474Z,2.90
2017-08-03T14:06:26.001Z,4.07
2017-08-03T14:08:54.485Z,3.67
2017-08-03T14:11:22.866Z,3.70
2017-08-03T14:13:50.397Z,2.97
2017-08-03T14:16:18.741Z,3.00
2017-08-03T14:18:46.282Z,5.37
2017-08-03T14:21:13.845Z,3.83
2017-08-03T14:23:41.468Z,5.83
2017-08-03T14:26:09.017Z,2.27
2017-08-03T14:28:36.556Z,5.20
2017-08-03T14:31:04.058Z,8.03
2017-08-03T14:33:31.545Z,3.40
2017-08-03T14:35:59.288Z,2.80
2017-08-03T14:38:26.941Z,4.60
2017-08-03T14:40:54.600Z,6.23
2017-08-03T14:43:22.109Z,2.60
2017-08-03T14:45:49.801Z,4.17
2017-08-03T14:48:17.313Z,2.87
2017-08-03T14:50:45.125Z,5.27
2017-08-03T14:53:12.714Z,4.97
2017-08-03T14:55:40.249Z,3.47
2017-08-03T14:58:07.796Z,5.97
2017-08-03T15:00:35.443Z,3.93
2017-08-03T15:03:02.984Z,4.53
2017-08-03T15:05:30.524Z,4.47
2017-08-03T15:07:58.137Z,5.27
2017-08-03T15:10:25.954Z,6.70
2017-08-03T15:12:53.494Z,7.70
2017-08-03T15:15:21.481Z,9.63
2017-08-03T15:17:49.055Z,8.83
2017-08-03T15:20:17.333Z,5.50
2017-08-03T15:22:44.897Z,7.10
2017-08-03T15:25:13.733Z,6.33
2017-08-03T15:27:42.940Z,7.07
2017-08-03T15:30:11.056Z,6.57
2017-08-03T15:32:38.663Z,5.23
2017-08-03T15:35:06.184Z,4.83
2017-08-03T15:37:33.695Z,4.40
2017-08-03T15:40:01.989Z,7.13
2017-08-03T15:42:29.541Z,4.90
2017-08-03T15:44:57.065Z,8.10
2017-08-03T15:47:24.768Z,13.27
2017-08-03T15:49:52.376Z,3.87
2017-08-03T15:52:19.879Z,3.93
2017-08-03T15:54:48.169Z,10.27
2017-08-03T15:57:15.652Z,5.63
2017-08-03T15:59:43.252Z,5.03
2017-08-03T16:02:10.769Z,4.67
2017-08-03T16:04:39.056Z,6.63
2017-08-03T16:07:06.634Z,3.93
2017-08-03T16:09:34.152Z,9.37
2017-08-03T16:12:01.632Z,4.80
2017-08-03T16:14:29.232Z,9.30
2017-08-03T16:16:56.732Z,8.23
2017-08-03T16:19:24.502Z,12.33
2017-08-03T16:21:52.829Z,3.03
2017-08-03T16:24:20.471Z,4.30
2017-08-03T16:26:48.020Z,4.90
2017-08-03T16:29:15.630Z,5.03
2017-08-03T16:31:43.128Z,5.30
2017-08-03T16:34:10.608Z,4.93
2017-08-03T16:36:38.113Z,10.13
2017-08-03T16:39:06.417Z,3.30
2017-08-03T16:41:33.922Z,5.83
2017-08-03T16:44:01.409Z,6.70
2017-08-03T16:46:28.949Z,11.53
2017-08-03T16:48:56.460Z,5.50
2017-08-03T16:51:24.758Z,6.03
2017-08-03T16:53:52.418Z,5.60
2017-08-03T16:56:19.927Z,6.27
2017-08-03T16:58:48.200Z,8.00
2017-08-03T17:01:15.850Z,4.73
2017-08-03T17:03:43.423Z,9.60
2017-08-03T17:06:10.921Z,7.00
2017-08-03T17:08:38.412Z,4.77
2017-08-03T17:11:05.930Z,4.67
2017-08-03T17:13:33.421Z,4.40
2017-08-03T17:16:00.916Z,6.10
2017-08-03T17:18:28.392Z,3.40
2017-08-03T17:20:55.940Z,15.47
2017-08-03T17:23:23.426Z,6.93
2017-08-03T17:25:51.058Z,5.20
2017-08-03T17:28:18.577Z,4.10
2017-08-03T17:30:46.145Z,5.27
2017-08-03T17:33:13.665Z,9.23
2017-08-03T17:35:41.172Z,6.43
2017-08-03T17:38:09.568Z,7.93
2017-08-03T17:40:37.073Z,7.97
2017-08-03T17:43:04.646Z,6.13
2017-08-03T17:45:32.144Z,4.23
2017-08-03T17:47:59.740Z,9.63
2017-08-03T17:50:27.294Z,6.30
2017-08-03T17:52:54.928Z,4.07
2017-08-03T17:55:22.480Z,3.67
2017-08-03T17:57:50.029Z,5.90
2017-08-03T18:00:18.556Z,5.47
2017-08-03T18:02:46.801Z,6.53
2017-08-03T18:05:14.288Z,4.83
2017-08-03T18:07:41.780Z,7.43
2017-08-03T18:10:09.304Z,5.90
2017-08-03T18:12:36.813Z,7.43
2017-08-03T18:15:04.310Z,8.63
2017-08-03T18:17:31.844Z,3.07
2017-08-03T18:19:59.324Z,4.70
2017-08-03T18:22:26.925Z,6.03
2017-08-03T18:24:54.464Z,13.07
2017-08-03T18:27:22.035Z,3.70
2017-08-03T18:29:49.568Z,7.33
2017-08-03T18:32:17.086Z,6.50
2017-08-03T18:34:44.641Z,7.63
2017-08-03T18:37:13.162Z,8.20
2017-08-03T18:39:40.662Z,5.80
2017-08-03T18:42:08.156Z,7.03
2017-08-03T18:44:35.744Z,12.30
2017-08-03T18:47:03.296Z,7.27
2017-08-03T18:49:30.824Z,5.13
2017-08-03T18:51:58.381Z,9.80
2017-08-03T18:54:25.873Z,5.07
2017-08-03T18:56:54.179Z,4.83
2017-08-03T18:59:21.812Z,5.90
2017-08-03T19:01:49.352Z,7.33
2017-08-03T19:04:16.900Z,10.23
2017-08-03T19:06:44.441Z,5.03
2017-08-03T19:09:11.985Z,13.03
2017-08-03T19:11:39.469Z,5.73
2017-08-03T19:14:07.078Z,8.23
2017-08-03T19:16:34.624Z,11.80
2017-08-03T19:19:02.157Z,10.67
2017-08-03T19:21:29.708Z,12.77
2017-08-03T19:23:57.274Z,7.00
2017-08-03T19:26:27.513Z,7.50
2017-08-03T19:28:55.192Z,6.60
2017-08-03T19:31:22.867Z,6.33
2017-08-03T19:33:50.364Z,7.00
2017-08-03T19:36:17.880Z,10.27
2017-08-03T19:38:45.365Z,9.23
2017-08-03T19:41:13.645Z,10.47
2017-08-03T19:43:41.162Z,5.50
2017-08-03T19:46:09.478Z,5.73
2017-08-03T19:48:36.985Z,7.23
2017-08-03T19:51:04.488Z,6.03
2017-08-03T19:53:31.974Z,6.57
2017-08-03T19:55:59.547Z,4.30
2017-08-03T19:58:27.076Z,5.27
2017-08-03T20:00:54.589Z,6.43
2017-08-03T20:03:22.136Z,5.77
2017-08-03T20:05:50.416Z,4.00
2017-08-03T20:08:38.504Z,5.83
2017-08-03T20:11:11.784Z,7.43
2017-08-03T20:13:39.366Z,5.23
2017-08-03T20:16:06.861Z,8.47
2017-08-03T20:18:34.352Z,6.13
2017-08-03T20:21:01.917Z,8.07
2017-08-03T20:23:29.440Z,4.13
2017-08-03T20:25:56.939Z,6.90
2017-08-03T20:28:24.477Z,4.77
2017-08-03T20:30:52.030Z,6.53
2017-08-03T20:33:19.561Z,8.90
2017-08-03T20:35:47.106Z,7.73
2017-08-03T20:38:14.604Z,5.23
2017-08-03T20:40:42.084Z,3.10
2017-08-03T20:43:09.601Z,12.37
2017-08-03T20:45:38.027Z,7.07
2017-08-03T20:48:05.595Z,8.93
2017-08-03T20:50:33.121Z,5.10
2017-08-03T20:53:00.733Z,5.30
2017-08-03T20:55:28.212Z,6.63
2017-08-03T20:57:55.791Z,10.20
2017-08-03T21:00:23.378Z,7.10
2017-08-03T21:02:50.917Z,8.00
2017-08-03T21:05:18.484Z,10.13
2017-08-03T21:07:45.996Z,5.33
2017-08-03T21:10:13.550Z,10.13
2017-08-03T21:12:41.040Z,10.70
2017-08-03T21:15:08.589Z,7.20
2017-08-03T21:17:46.793Z,4.83
2017-08-03T21:20:15.121Z,6.43
2017-08-03T21:22:42.600Z,5.20
2017-08-03T21:25:10.908Z,7.63
2017-08-03T21:27:38.466Z,6.10
2017-08-03T21:30:05.975Z,8.50
2017-08-03T21:32:34.236Z,8.73
2017-08-03T21:35:02.659Z,7.20
2017-08-03T21:37:30.189Z,8.83
2017-08-03T21:39:57.727Z,5.60
2017-08-03T21:42:25.272Z,6.13
2017-08-03T21:44:52.753Z,6.40
2017-08-03T21:47:20.349Z,6.83
2017-08-03T21:49:48.046Z,5.90
2017-08-03T21:52:15.562Z,10.00
2017-08-03T21:54:43.114Z,7.13
2017-08-03T21:57:10.609Z,5.20
2017-08-03T21:59:38.895Z,6.00
2017-08-03T22:02:06.548Z,4.77
2017-08-03T22:04:34.096Z,8.97
2017-08-03T22:07:01.687Z,5.70
2017-08-03T22:09:30.823Z,8.50
2017-08-03T22:11:58.465Z,7.70
2017-08-03T22:14:25.989Z,9.63
2017-08-03T22:16:53.486Z,9.33
2017-08-03T22:19:21.078Z,9.00
2017-08-03T22:21:48.616Z,6.63
2017-08-03T22:24:16.171Z,6.10
2017-08-03T22:26:43.681Z,3.87
2017-08-03T22:29:11.970Z,4.73
2017-08-03T22:31:39.508Z,7.17
2017-08-03T22:34:07.008Z,6.60
2017-08-03T22:36:34.489Z,7.87
2017-08-03T22:39:02.051Z,7.20
2017-08-03T22:41:29.584Z,10.50
2017-08-03T22:43:57.090Z,14.30
2017-08-03T22:46:25.397Z,7.50
2017-08-03T22:48:52.933Z,8.30
2017-08-03T22:51:20.473Z,8.63
2017-08-03T22:53:47.995Z,6.73
2017-08-03T22:56:16.276Z,5.80
2017-08-03T22:58:43.920Z,4.87
2017-08-03T23:01:11.472Z,6.30
2017-08-03T23:03:39.016Z,8.73
2017-08-03T23:06:06.517Z,5.00
2017-08-03T23:08:34.037Z,10.57
2017-08-03T23:11:01.645Z,5.90
2017-08-03T23:13:29.310Z,7.83
2017-08-03T23:15:56.937Z,7.00
2017-08-03T23:18:24.650Z,6.23
2017-08-03T23:20:52.252Z,9.77
2017-08-03T23:23:19.797Z,6.00
2017-08-03T23:25:47.336Z,5.43
2017-08-03T23:28:14.879Z,5.03
2017-08-03T23:30:42.438Z,7.23
2017-08-03T23:33:09.998Z,6.90
2017-08-03T23:35:37.623Z,10.27
2017-08-03T23:38:05.160Z,5.70
2017-08-03T23:40:32.703Z,9.27
2017-08-03T23:43:00.213Z,8.63
2017-08-03T23:45:27.707Z,7.50
2017-08-03T23:47:55.240Z,11.07
2017-08-03T23:50:22.776Z,9.00
2017-08-03T23:52:50.321Z,6.47
2017-08-03T23:55:17.873Z,13.67
2017-08-03T23:57:45.382Z,11.20
